الصفحة الرئيسية
METAR-TAF:

METAR-TAF

مطار :

فلاديفوستوك, روسيا

دائرة عرض: 43-07N, خط طول: 131-56E, ارتفاع: 184 متر

مراقبة الطقس الحالي

تاريخ ووقت الإصدار 25 دقيقة قبل الساعة 12:00UTC
رياح هادئة
درجة الحرارة 11°درجة مئوية
الرطوبة 100%
ضغط 1011 hPa
الرؤية 10 كم أو أكثر

METAR: UHWW 301200Z 00000MPS 9999 NSC 11/11 Q1011 R25L/150065 NOSIG RMK QFE757

زمن: 22:25 (12:25 UTC)

توقعات

تاريخ ووقت الإصدار 1ساعة و 25 دقيقة قبل الساعة 11:00UTC
التوقعات صالحة من30 الساعة 12 UTC إلى 31 الساعة 12 UTC
ريح 6 عقدة من الغرب
الرؤية: 6000 متر
غيوم قليلة على ارتفاع 300 قدم
غيوم مفككة على ارتفاع 1600 قدم, مزنة ركامية.
زخات من الأمطار الخفيفة
أصبح
من 30 الساعة 18 UTC إلى 30 الساعة 21 UTC
الرؤية: 0300 متر
على ارتفاع 200 قدم
ضباب
أصبح
من 30 الساعة 22 UTC إلى 30 الساعة 24 UTC
الرؤية 10 كم أو أكثر
غيوم مفككة على ارتفاع 1700 قدم, مزنة ركامية.
زخات من الأمطار الخفيفة
أصبح
من 31 الساعة 01 UTC إلى 31 الساعة 03 UTC
ريح 6 عقدة من الجنوب الغربي تتزايد حتى 16 عقدة

TAF: UHWW 301100Z 3012/3112 26003MPS 6000 -SHRA FEW003 BKN016CB BECMG 3018/3021 0300 FG VV002 BECMG 3022/3024 9999 -SHRA BKN017CB BECMG 3101/3103 22003G08MPS

أرصاد الطقس والتوقعات من أكثر من 4000 مطار (تقارير الطقس للمطار METAR والتنبؤ بالطقس بالمطارTAF).

المحطات المتاحة هي النقط الصفراء والحمراء على الخريطة.

حرك المؤشر فوق النقطة لمعرفة اسم المحطة.

ثم انقر لمعرفة أرصاد وتوقعات الطقس.

لتغيير الخارطة: اضغط على الأزرار الخضراء مع رمز الصليب الأسود للتكبير. على الزر الأخضر مع شرطة للتصغير، أو على الأسهم الخضراء للخرائط المجاورة.


METAR-TAF: